Погода Марковщинана 2 недели

Минская область, Белоруссия

23 июля-05 августа
  • 23июля
    Сегодня
    +14°
    +27°
    Практически безоблачно
    ВремяПогодаТемператураВлажностьДавлениеВетер, м/сВероятность осадков
    00:00Ясно и безоблачно+19°C87 %746 мм0.2 м/с2 %
    03:00Практически безоблачно+16°C97 %746 мм0.0 м/с2 %
    06:00Ясно и безоблачно+15°C95 %747 мм0.4 м/с2 %
    09:00Ясно и безоблачно+21°C82 %747 мм1.6 м/с2 %
    12:00Практически безоблачно+25°C63 %747 мм2.2 м/с2 %
    15:00Практически безоблачно+27°C55 %747 мм2.4 м/с14 %
    18:00Небольшая облачность+26°C53 %746 мм1.9 м/с5 %
    21:00Облачно с прояснениями+23°C75 %747 мм0.7 м/с2 %
  • 24июля
    Среда
    +14°
    +27°
    Ясно и безоблачно
    ВремяПогодаТемператураВлажностьДавлениеВетер, м/сВероятность осадков
    00:00Ясно и безоблачно+18°C85 %746 мм0.7 м/с2 %
    03:00Практически безоблачно+16°C79 %746 мм0.3 м/с2 %
    06:00Ясно и безоблачно+15°C78 %746 мм0.4 м/с2 %
    09:00Ясно и безоблачно+21°C64 %746 мм1.5 м/с2 %
    12:00Практически безоблачно+25°C49 %746 мм2.5 м/с5 %
    15:00Ясно и безоблачно+27°C45 %745 мм2.5 м/с9 %
    18:00Облачно с прояснениями+25°C41 %745 мм1.9 м/с5 %
    21:00Облачно с прояснениями+22°C64 %745 мм1.1 м/с2 %
  • 25июля
    Четверг
    +16°
    +26°
    Пасмурно, сплошная облачность
    ВремяПогодаТемператураВлажностьДавлениеВетер, м/сВероятность осадков
    00:00Облачно с прояснениями+18°C63 %745 мм1.2 м/с2 %
    03:00Практически безоблачно+16°C71 %745 мм0.5 м/с2 %
    06:00Облачно с прояснениями+15°C77 %744 мм0.8 м/с2 %
    09:00Облачно с прояснениями+20°C65 %745 мм1.8 м/с2 %
    12:00Облачно с прояснениями+25°C44 %745 мм3.0 м/с2 %
    15:00Пасмурно, сплошная облачность+26°C39 %744 мм2.6 м/с4 %
    18:00Облачно с прояснениями+25°C45 %744 мм1.9 м/с4 %
    21:00Облачно с прояснениями+22°C53 %744 мм0.6 м/с3 %
  • 26июля
    Пятница
    +15°
    +28°
    Ясно и безоблачно
    ВремяПогодаТемператураВлажностьДавлениеВетер, м/сВероятность осадков
    00:00Облачно с прояснениями+19°C61 %745 мм0.8 м/с3 %
    03:00Облачно с прояснениями+17°C66 %745 мм0.6 м/с2 %
    06:00Облачно с прояснениями+16°C70 %745 мм0.8 м/с3 %
    09:00Облачно с прояснениями+21°C64 %746 мм1.4 м/с4 %
    12:00Практически безоблачно+25°C44 %747 мм1.8 м/с9 %
    15:00Ясно и безоблачно+27°C40 %748 мм1.5 м/с20 %
    18:00Практически безоблачно+27°C41 %748 мм1.6 м/с23 %
    21:00Ясно и безоблачно+23°C60 %748 мм0.4 м/с21 %
  • 27июля
    Суббота
    +17°
    +30°
    Ясно и безоблачно
    ВремяПогодаТемператураВлажностьДавлениеВетер, м/сВероятность осадков
    00:00Ясно и безоблачно+20°C80 %749 мм0.5 м/с15 %
    03:00Ясно и безоблачно+17°C91 %750 мм0.2 м/с20 %
    06:00Ясно и безоблачно+16°C96 %750 мм0.0 м/с17 %
    09:00Ясно и безоблачно+22°C73 %751 мм0.7 м/с11 %
    12:00Ясно и безоблачно+27°C50 %752 мм1.4 м/с13 %
    15:00Ясно и безоблачно+29°C44 %752 мм1.8 м/с21 %
    18:00Ясно и безоблачно+26°C43 %751 мм1.2 м/с35 %
    21:00Практически безоблачно+24°C67 %752 мм0.2 м/с11 %
Мы используем cookies
Соглашаюсь